createdAt,value
2023-01-19T00:03:51.513Z,0.90
2023-01-19T00:09:00.948Z,0.90
2023-01-19T00:14:08.879Z,0.90
2023-01-19T00:19:15.712Z,0.90
2023-01-19T00:29:54.517Z,0.90
2023-01-19T00:35:01.393Z,0.90
2023-01-19T00:40:08.956Z,0.90
2023-01-19T00:45:20.477Z,0.90
2023-01-19T00:50:28.087Z,0.90
2023-01-19T00:55:36.490Z,0.90
2023-01-19T01:00:43.096Z,0.90
2023-01-19T01:05:48.219Z,0.90
2023-01-19T01:10:55.527Z,0.90
2023-01-19T01:16:00.911Z,0.90
2023-01-19T01:21:07.819Z,0.90
2023-01-19T01:26:13.280Z,0.80
2023-01-19T01:31:18.670Z,0.80
2023-01-19T01:36:24.180Z,0.70
2023-01-19T01:41:29.871Z,0.70
2023-01-19T01:46:35.972Z,0.70
2023-01-19T01:51:44.237Z,0.80
2023-01-19T01:56:52.400Z,0.80
2023-01-19T02:02:18.262Z,0.80
2023-01-19T02:07:50.872Z,0.80
2023-01-19T02:13:14.575Z,0.80
2023-01-19T02:18:22.449Z,0.80
2023-01-19T02:23:54.817Z,0.90
2023-01-19T02:29:03.110Z,0.90
2023-01-19T02:34:11.730Z,0.90
2023-01-19T02:39:19.898Z,0.90
2023-01-19T02:44:27.256Z,0.90
2023-01-19T02:49:32.564Z,1.00
2023-01-19T02:54:46.899Z,0.90
2023-01-19T03:00:03.372Z,0.90
2023-01-19T03:05:26.716Z,1.00
2023-01-19T03:10:49.794Z,1.00
2023-01-19T03:16:00.818Z,1.00
2023-01-19T03:21:08.339Z,1.00
2023-01-19T03:26:16.601Z,1.00
2023-01-19T03:31:27.724Z,1.00
2023-01-19T03:36:51.097Z,1.00
2023-01-19T03:42:05.275Z,1.00
2023-01-19T03:47:13.212Z,1.00
2023-01-19T03:52:18.578Z,1.00
2023-01-19T03:57:24.420Z,0.90
2023-01-19T04:02:29.670Z,1.00
2023-01-19T04:07:35.197Z,1.00
2023-01-19T04:12:41.126Z,1.00
2023-01-19T04:17:46.411Z,1.00
2023-01-19T04:22:51.608Z,1.00
2023-01-19T04:27:59.091Z,1.00
2023-01-19T04:33:04.465Z,1.00
2023-01-19T04:38:09.694Z,0.90
2023-01-19T04:43:15.367Z,0.90
2023-01-19T04:48:21.549Z,0.70
2023-01-19T04:53:26.928Z,0.60
2023-01-19T04:58:32.295Z,0.50
2023-01-19T05:03:37.732Z,0.40
2023-01-19T05:08:44.593Z,0.30
2023-01-19T05:13:51.008Z,0.10
2023-01-19T05:18:57.011Z,0.00
2023-01-19T05:24:03.476Z,0.00
2023-01-19T05:29:11.421Z,0.00
2023-01-19T05:34:21.099Z,0.10
2023-01-19T05:39:26.893Z,0.10
2023-01-19T05:44:32.444Z,0.20
2023-01-19T05:49:38.376Z,0.30
2023-01-19T05:54:55.293Z,0.30
2023-01-19T06:00:10.174Z,0.40
2023-01-19T06:05:22.161Z,0.40
2023-01-19T06:10:30.808Z,0.40
2023-01-19T06:15:52.659Z,0.40
2023-01-19T06:21:16.323Z,0.40
2023-01-19T06:26:31.096Z,0.40
2023-01-19T06:31:44.554Z,0.50
2023-01-19T06:36:51.913Z,0.50
2023-01-19T06:41:59.921Z,0.50
2023-01-19T06:47:17.201Z,0.60
2023-01-19T06:52:43.248Z,0.60
2023-01-19T06:57:54.741Z,0.60
2023-01-19T07:03:28.950Z,0.60
2023-01-19T07:14:11.313Z,0.70
2023-01-19T07:19:20.806Z,0.80
2023-01-19T07:30:01.630Z,0.80
2023-01-19T07:35:25.002Z,0.80
2023-01-19T07:40:53.096Z,0.80
2023-01-19T07:46:06.808Z,0.90
2023-01-19T07:51:21.220Z,0.90
2023-01-19T07:56:34.166Z,0.90
2023-01-19T08:01:47.197Z,1.00
2023-01-19T08:07:12.989Z,1.00
2023-01-19T08:12:21.292Z,1.00
2023-01-19T08:17:43.226Z,1.10
2023-01-19T08:22:54.056Z,1.10
2023-01-19T08:28:13.016Z,1.10
2023-01-19T08:33:20.867Z,1.10
2023-01-19T08:38:27.306Z,1.10
2023-01-19T08:49:17.712Z,1.20
2023-01-19T08:59:59.824Z,1.20
2023-01-19T09:10:41.913Z,1.30
2023-01-19T09:15:52.001Z,1.40
2023-01-19T09:21:05.460Z,1.40
2023-01-19T09:26:23.803Z,1.40
2023-01-19T09:31:38.774Z,1.40
2023-01-19T09:36:50.747Z,1.40
2023-01-19T09:42:15.398Z,1.50
2023-01-19T09:47:44.227Z,1.50
2023-01-19T09:53:09.829Z,1.50
2023-01-19T09:58:34.928Z,1.60
2023-01-19T10:03:53.346Z,1.70
2023-01-19T10:09:23.941Z,1.70
2023-01-19T10:14:43.718Z,1.70
2023-01-19T10:19:54.619Z,1.90
2023-01-19T10:25:10.932Z,2.00
2023-01-19T10:30:24.992Z,2.10
2023-01-19T10:35:35.035Z,2.00
2023-01-19T10:41:08.756Z,2.00
2023-01-19T10:46:37.054Z,1.90
2023-01-19T10:51:50.503Z,2.00
2023-01-19T10:57:07.319Z,2.10
2023-01-19T11:02:17.909Z,2.20
2023-01-19T11:07:45.037Z,2.30
2023-01-19T11:30:28.581Z,2.30
2023-01-19T11:36:11.675Z,2.30
2023-01-19T11:41:42.632Z,2.30
2023-01-19T11:47:12.961Z,2.30
2023-01-19T11:52:32.524Z,2.30
2023-01-19T11:57:54.115Z,2.30
2023-01-19T12:03:29.650Z,2.30
2023-01-19T12:09:17.200Z,2.30
2023-01-19T12:14:43.409Z,2.30
2023-01-19T12:19:57.011Z,2.40
2023-01-19T12:25:32.078Z,2.50
2023-01-19T12:30:48.046Z,2.70
2023-01-19T12:41:55.250Z,2.90
2023-01-19T12:52:54.753Z,2.80
2023-01-19T12:58:24.485Z,2.70
2023-01-19T13:03:33.876Z,2.70
2023-01-19T13:09:00.741Z,2.70
2023-01-19T13:14:44.237Z,2.60
2023-01-19T13:20:14.654Z,2.60
2023-01-19T13:25:37.681Z,2.50
2023-01-19T13:42:26.179Z,2.50
2023-01-19T13:53:30.320Z,2.60
2023-01-19T13:58:47.625Z,2.60
2023-01-19T14:04:11.604Z,2.60
2023-01-19T14:09:26.695Z,2.60
2023-01-19T14:14:42.403Z,2.60
2023-01-19T14:19:58.548Z,2.60
2023-01-19T14:25:27.088Z,2.50
2023-01-19T14:30:44.235Z,2.40
2023-01-19T14:36:36.709Z,2.30
2023-01-19T14:42:02.214Z,2.40
2023-01-19T14:47:40.921Z,2.40
2023-01-19T14:53:25.647Z,2.30
2023-01-19T14:59:02.887Z,2.40
2023-01-19T15:16:21.356Z,2.30
2023-01-19T15:21:35.695Z,2.30
2023-01-19T15:26:47.463Z,2.30
2023-01-19T15:31:57.931Z,2.20
2023-01-19T15:48:22.960Z,2.20
2023-01-19T15:59:10.009Z,2.10
2023-01-19T16:04:39.992Z,2.00
2023-01-19T16:09:50.966Z,2.00
2023-01-19T16:20:55.909Z,1.90
2023-01-19T16:49:00.172Z,1.70
2023-01-19T16:54:13.999Z,1.70
2023-01-19T16:59:44.330Z,1.60
2023-01-19T17:10:48.189Z,1.50
2023-01-19T17:39:09.671Z,1.00
2023-01-19T17:44:36.200Z,1.00
2023-01-19T17:49:49.569Z,0.80
2023-01-19T17:54:55.945Z,0.80
2023-01-19T18:00:01.312Z,0.90
2023-01-19T18:05:11.283Z,1.00
2023-01-19T18:10:17.795Z,1.10
2023-01-19T18:15:23.176Z,1.20
2023-01-19T18:20:31.466Z,1.20
2023-01-19T18:25:35.955Z,1.30
2023-01-19T18:36:20.169Z,1.30
2023-01-19T18:41:25.621Z,1.40
2023-01-19T18:52:21.006Z,1.40
2023-01-19T18:57:34.702Z,1.40
2023-01-19T19:02:44.167Z,1.40
2023-01-19T19:08:13.893Z,1.40
2023-01-19T19:13:27.391Z,1.50
2023-01-19T19:18:37.854Z,1.50
2023-01-19T19:23:46.391Z,1.50
2023-01-19T19:28:53.647Z,1.50
2023-01-19T19:34:05.485Z,1.50
2023-01-19T19:39:11.066Z,1.50
2023-01-19T19:44:47.573Z,1.50
2023-01-19T19:50:00.565Z,1.50
2023-01-19T19:55:21.363Z,1.40
2023-01-19T20:00:27.109Z,1.40
2023-01-19T20:05:37.376Z,1.40
2023-01-19T20:10:43.018Z,1.40
2023-01-19T20:16:08.711Z,1.30
2023-01-19T20:21:26.048Z,1.30
2023-01-19T20:26:34.407Z,1.30
2023-01-19T20:31:43.348Z,1.20
2023-01-19T20:36:50.919Z,1.20
2023-01-19T20:41:56.605Z,1.20
2023-01-19T20:47:09.443Z,1.20
2023-01-19T21:20:34.793Z,1.20
2023-01-19T21:25:40.459Z,1.10
2023-01-19T21:30:46.277Z,1.00
2023-01-19T21:35:57.094Z,0.90
2023-01-19T21:41:08.415Z,0.70
2023-01-19T21:46:16.491Z,0.60
2023-01-19T21:51:21.807Z,0.60
2023-01-19T21:56:28.526Z,0.60
2023-01-19T22:01:35.134Z,0.60
2023-01-19T22:06:40.873Z,0.60
2023-01-19T22:11:46.289Z,0.60
2023-01-19T22:16:51.667Z,0.60
2023-01-19T22:21:57.997Z,0.50
2023-01-19T22:27:03.472Z,0.50
2023-01-19T22:32:08.997Z,0.40
2023-01-19T22:37:14.418Z,0.40
2023-01-19T22:42:20.065Z,0.30
2023-01-19T22:47:25.350Z,0.20
2023-01-19T22:52:30.757Z,0.20
2023-01-19T22:57:36.837Z,0.10
2023-01-19T23:02:42.788Z,0.00
2023-01-19T23:07:48.833Z,0.00
2023-01-19T23:12:54.262Z,0.10
2023-01-19T23:17:59.658Z,0.10
2023-01-19T23:23:05.393Z,0.10
2023-01-19T23:28:10.883Z,0.10
2023-01-19T23:33:16.543Z,0.10
2023-01-19T23:38:22.672Z,0.10
2023-01-19T23:43:28.876Z,0.10
2023-01-19T23:48:35.664Z,0.00
2023-01-19T23:53:41.224Z,0.00
2023-01-19T23:58:48.952Z,0.00
